sensor_id;sensor_type;location;lat;lon;timestamp;temperature;humidity
9768;DHT22;4923;52.520;13.494;2023-11-18T00:01:20;5.60;99.90
9768;DHT22;4923;52.520;13.494;2023-11-18T00:04:07;5.50;99.90
9768;DHT22;4923;52.520;13.494;2023-11-18T00:07:02;5.50;99.90
9768;DHT22;4923;52.520;13.494;2023-11-18T00:09:49;5.50;99.90
9768;DHT22;4923;52.520;13.494;2023-11-18T00:12:37;5.50;99.90
9768;DHT22;4923;52.520;13.494;2023-11-18T00:15:26;5.60;99.90
9768;DHT22;4923;52.520;13.494;2023-11-18T00:18:13;5.50;99.90
9768;DHT22;4923;52.520;13.494;2023-11-18T00:21:00;5.50;99.90
9768;DHT22;4923;52.520;13.494;2023-11-18T00:23:49;5.50;99.90
9768;DHT22;4923;52.520;13.494;2023-11-18T00:26:35;5.50;99.90
9768;DHT22;4923;52.520;13.494;2023-11-18T00:29:22;5.50;99.90
9768;DHT22;4923;52.520;13.494;2023-11-18T00:32:09;5.50;99.90
9768;DHT22;4923;52.520;13.494;2023-11-18T00:34:56;5.50;99.90
9768;DHT22;4923;52.520;13.494;2023-11-18T00:37:43;5.50;99.90
9768;DHT22;4923;52.520;13.494;2023-11-18T00:40:31;5.50;99.90
9768;DHT22;4923;52.520;13.494;2023-11-18T00:43:18;5.50;99.90
9768;DHT22;4923;52.520;13.494;2023-11-18T00:46:05;5.50;99.90
9768;DHT22;4923;52.520;13.494;2023-11-18T00:48:52;5.50;99.90
9768;DHT22;4923;52.520;13.494;2023-11-18T00:51:39;5.50;99.90
9768;DHT22;4923;52.520;13.494;2023-11-18T00:54:26;5.50;99.90
9768;DHT22;4923;52.520;13.494;2023-11-18T00:57:15;5.50;99.90
9768;DHT22;4923;52.520;13.494;2023-11-18T01:00:03;5.40;99.90
9768;DHT22;4923;52.520;13.494;2023-11-18T01:02:50;5.50;99.90
9768;DHT22;4923;52.520;13.494;2023-11-18T01:05:36;5.50;99.90
9768;DHT22;4923;52.520;13.494;2023-11-18T01:08:24;5.50;99.90
9768;DHT22;4923;52.520;13.494;2023-11-18T01:11:15;5.50;99.90
9768;DHT22;4923;52.520;13.494;2023-11-18T01:14:05;5.50;99.90
9768;DHT22;4923;52.520;13.494;2023-11-18T01:16:53;5.50;99.90
9768;DHT22;4923;52.520;13.494;2023-11-18T01:19:40;5.50;99.90
9768;DHT22;4923;52.520;13.494;2023-11-18T01:22:27;5.50;99.90
9768;DHT22;4923;52.520;13.494;2023-11-18T01:25:15;5.40;99.90
9768;DHT22;4923;52.520;13.494;2023-11-18T01:28:03;5.50;99.90
9768;DHT22;4923;52.520;13.494;2023-11-18T01:30:51;5.50;99.90
9768;DHT22;4923;52.520;13.494;2023-11-18T01:33:39;5.50;99.90
9768;DHT22;4923;52.520;13.494;2023-11-18T01:36:26;5.40;99.90
9768;DHT22;4923;52.520;13.494;2023-11-18T01:39:13;5.40;99.90
9768;DHT22;4923;52.520;13.494;2023-11-18T01:42:00;5.40;99.90
9768;DHT22;4923;52.520;13.494;2023-11-18T01:44:48;5.40;99.90
9768;DHT22;4923;52.520;13.494;2023-11-18T01:47:38;5.40;99.90
9768;DHT22;4923;52.520;13.494;2023-11-18T01:50:25;5.40;99.90
9768;DHT22;4923;52.520;13.494;2023-11-18T01:53:12;5.40;99.90
9768;DHT22;4923;52.520;13.494;2023-11-18T01:55:59;5.40;99.90
9768;DHT22;4923;52.520;13.494;2023-11-18T01:58:46;5.40;99.90
9768;DHT22;4923;52.520;13.494;2023-11-18T02:01:35;5.40;99.90
9768;DHT22;4923;52.520;13.494;2023-11-18T02:04:23;5.40;99.90
9768;DHT22;4923;52.520;13.494;2023-11-18T02:07:10;5.40;99.90
9768;DHT22;4923;52.520;13.494;2023-11-18T02:10:00;5.50;99.90
9768;DHT22;4923;52.520;13.494;2023-11-18T02:12:53;5.40;99.90
9768;DHT22;4923;52.520;13.494;2023-11-18T02:15:42;5.40;99.90
9768;DHT22;4923;52.520;13.494;2023-11-18T02:18:30;5.40;99.90
9768;DHT22;4923;52.520;13.494;2023-11-18T02:21:19;5.40;99.90
9768;DHT22;4923;52.520;13.494;2023-11-18T02:24:09;5.40;99.90
9768;DHT22;4923;52.520;13.494;2023-11-18T02:27:00;5.40;99.90
9768;DHT22;4923;52.520;13.494;2023-11-18T02:29:48;5.40;99.90
9768;DHT22;4923;52.520;13.494;2023-11-18T02:32:40;5.50;99.90
9768;DHT22;4923;52.520;13.494;2023-11-18T02:35:33;5.40;99.90
9768;DHT22;4923;52.520;13.494;2023-11-18T02:38:26;5.40;99.90
9768;DHT22;4923;52.520;13.494;2023-11-18T02:41:18;5.40;99.90
9768;DHT22;4923;52.520;13.494;2023-11-18T02:44:08;5.40;99.90
9768;DHT22;4923;52.520;13.494;2023-11-18T02:46:56;5.40;99.90
9768;DHT22;4923;52.520;13.494;2023-11-18T02:49:43;5.40;99.90
9768;DHT22;4923;52.520;13.494;2023-11-18T02:52:29;5.30;99.90
9768;DHT22;4923;52.520;13.494;2023-11-18T02:55:16;5.30;99.90
9768;DHT22;4923;52.520;13.494;2023-11-18T02:58:03;5.30;99.90
9768;DHT22;4923;52.520;13.494;2023-11-18T03:00:51;5.30;99.90
9768;DHT22;4923;52.520;13.494;2023-11-18T03:03:39;5.30;99.90
9768;DHT22;4923;52.520;13.494;2023-11-18T03:06:28;5.30;99.90
9768;DHT22;4923;52.520;13.494;2023-11-18T03:09:14;5.30;99.90
9768;DHT22;4923;52.520;13.494;2023-11-18T03:12:02;5.30;99.90
9768;DHT22;4923;52.520;13.494;2023-11-18T03:14:49;5.30;99.90
9768;DHT22;4923;52.520;13.494;2023-11-18T03:17:37;5.30;99.90
9768;DHT22;4923;52.520;13.494;2023-11-18T03:20:24;5.30;99.90
9768;DHT22;4923;52.520;13.494;2023-11-18T03:23:12;5.40;99.90
9768;DHT22;4923;52.520;13.494;2023-11-18T03:25:58;5.30;99.90
9768;DHT22;4923;52.520;13.494;2023-11-18T03:28:45;5.40;99.90
9768;DHT22;4923;52.520;13.494;2023-11-18T03:31:32;5.40;99.90
9768;DHT22;4923;52.520;13.494;2023-11-18T03:34:20;5.30;99.90
9768;DHT22;4923;52.520;13.494;2023-11-18T03:37:07;5.40;99.90
9768;DHT22;4923;52.520;13.494;2023-11-18T03:39:55;5.30;99.90
9768;DHT22;4923;52.520;13.494;2023-11-18T03:42:42;5.30;99.90
9768;DHT22;4923;52.520;13.494;2023-11-18T03:45:28;5.40;99.90
9768;DHT22;4923;52.520;13.494;2023-11-18T03:48:16;5.30;99.90
9768;DHT22;4923;52.520;13.494;2023-11-18T03:51:05;5.40;99.90
9768;DHT22;4923;52.520;13.494;2023-11-18T03:53:52;5.40;99.90
9768;DHT22;4923;52.520;13.494;2023-11-18T03:56:39;5.40;99.90
9768;DHT22;4923;52.520;13.494;2023-11-18T03:59:26;5.40;99.90
9768;DHT22;4923;52.520;13.494;2023-11-18T04:02:13;5.40;99.90
9768;DHT22;4923;52.520;13.494;2023-11-18T04:05:00;5.40;99.90
9768;DHT22;4923;52.520;13.494;2023-11-18T04:07:48;5.40;99.90
9768;DHT22;4923;52.520;13.494;2023-11-18T04:10:35;5.40;99.90
9768;DHT22;4923;52.520;13.494;2023-11-18T04:13:22;5.30;99.90
9768;DHT22;4923;52.520;13.494;2023-11-18T04:16:10;5.30;99.90
9768;DHT22;4923;52.520;13.494;2023-11-18T04:18:58;5.40;99.90
9768;DHT22;4923;52.520;13.494;2023-11-18T04:21:46;5.30;99.90
9768;DHT22;4923;52.520;13.494;2023-11-18T04:24:36;5.30;99.90
9768;DHT22;4923;52.520;13.494;2023-11-18T04:27:23;5.30;99.90
9768;DHT22;4923;52.520;13.494;2023-11-18T04:30:10;5.30;99.90
9768;DHT22;4923;52.520;13.494;2023-11-18T04:32:58;5.30;99.90
9768;DHT22;4923;52.520;13.494;2023-11-18T04:35:46;5.30;99.90
9768;DHT22;4923;52.520;13.494;2023-11-18T04:38:33;5.30;99.90
9768;DHT22;4923;52.520;13.494;2023-11-18T04:41:21;5.30;99.90
9768;DHT22;4923;52.520;13.494;2023-11-18T04:44:08;5.20;99.90
9768;DHT22;4923;52.520;13.494;2023-11-18T04:46:55;5.20;99.90
9768;DHT22;4923;52.520;13.494;2023-11-18T04:49:42;5.20;99.90
9768;DHT22;4923;52.520;13.494;2023-11-18T04:52:29;5.20;99.90
9768;DHT22;4923;52.520;13.494;2023-11-18T04:55:18;5.10;99.90
9768;DHT22;4923;52.520;13.494;2023-11-18T04:58:07;5.20;99.90
9768;DHT22;4923;52.520;13.494;2023-11-18T05:00:55;5.20;99.90
9768;DHT22;4923;52.520;13.494;2023-11-18T05:03:42;5.20;99.90
9768;DHT22;4923;52.520;13.494;2023-11-18T05:06:29;5.20;99.90
9768;DHT22;4923;52.520;13.494;2023-11-18T05:09:16;5.20;99.90
9768;DHT22;4923;52.520;13.494;2023-11-18T05:12:04;5.20;99.90
9768;DHT22;4923;52.520;13.494;2023-11-18T05:14:53;5.30;99.90
9768;DHT22;4923;52.520;13.494;2023-11-18T05:17:41;5.30;99.90
9768;DHT22;4923;52.520;13.494;2023-11-18T05:20:28;5.30;99.90
9768;DHT22;4923;52.520;13.494;2023-11-18T05:23:15;5.30;99.90
9768;DHT22;4923;52.520;13.494;2023-11-18T05:26:03;5.30;99.90
9768;DHT22;4923;52.520;13.494;2023-11-18T05:28:51;5.30;99.90
9768;DHT22;4923;52.520;13.494;2023-11-18T05:31:39;5.30;99.90
9768;DHT22;4923;52.520;13.494;2023-11-18T05:34:26;5.30;99.90
9768;DHT22;4923;52.520;13.494;2023-11-18T05:37:13;5.30;99.90
9768;DHT22;4923;52.520;13.494;2023-11-18T05:40:04;5.20;99.90
9768;DHT22;4923;52.520;13.494;2023-11-18T05:42:52;5.30;99.90
9768;DHT22;4923;52.520;13.494;2023-11-18T05:45:40;5.20;99.90
9768;DHT22;4923;52.520;13.494;2023-11-18T05:48:48;5.20;99.90
9768;DHT22;4923;52.520;13.494;2023-11-18T05:51:35;5.20;99.90
9768;DHT22;4923;52.520;13.494;2023-11-18T05:54:22;5.20;99.90
9768;DHT22;4923;52.520;13.494;2023-11-18T05:57:09;5.20;99.90
9768;DHT22;4923;52.520;13.494;2023-11-18T05:59:57;5.20;99.90
9768;DHT22;4923;52.520;13.494;2023-11-18T06:02:44;5.20;99.90
9768;DHT22;4923;52.520;13.494;2023-11-18T06:05:32;5.10;99.90
9768;DHT22;4923;52.520;13.494;2023-11-18T06:08:20;5.10;99.90
9768;DHT22;4923;52.520;13.494;2023-11-18T06:11:08;4.90;99.90
9768;DHT22;4923;52.520;13.494;2023-11-18T06:13:59;4.90;99.90
9768;DHT22;4923;52.520;13.494;2023-11-18T06:16:47;4.90;99.90
9768;DHT22;4923;52.520;13.494;2023-11-18T06:19:36;4.80;99.90
9768;DHT22;4923;52.520;13.494;2023-11-18T06:22:24;4.70;99.90
9768;DHT22;4923;52.520;13.494;2023-11-18T06:25:11;4.70;99.90
9768;DHT22;4923;52.520;13.494;2023-11-18T06:27:58;4.70;99.90
9768;DHT22;4923;52.520;13.494;2023-11-18T06:30:45;4.80;99.90
9768;DHT22;4923;52.520;13.494;2023-11-18T06:33:32;4.80;99.90
9768;DHT22;4923;52.520;13.494;2023-11-18T06:36:19;4.80;99.90
9768;DHT22;4923;52.520;13.494;2023-11-18T06:39:08;4.80;99.90
9768;DHT22;4923;52.520;13.494;2023-11-18T06:41:55;4.70;99.90
9768;DHT22;4923;52.520;13.494;2023-11-18T06:44:42;4.60;99.90
9768;DHT22;4923;52.520;13.494;2023-11-18T06:47:29;4.50;99.90
9768;DHT22;4923;52.520;13.494;2023-11-18T06:50:18;4.50;99.90
9768;DHT22;4923;52.520;13.494;2023-11-18T06:53:10;4.40;99.90
9768;DHT22;4923;52.520;13.494;2023-11-18T06:55:58;4.50;99.90
9768;DHT22;4923;52.520;13.494;2023-11-18T06:58:45;4.50;99.90
9768;DHT22;4923;52.520;13.494;2023-11-18T07:01:32;4.60;99.90
9768;DHT22;4923;52.520;13.494;2023-11-18T07:04:19;4.60;99.90
9768;DHT22;4923;52.520;13.494;2023-11-18T07:07:06;4.70;99.90
9768;DHT22;4923;52.520;13.494;2023-11-18T07:09:54;4.70;99.90
9768;DHT22;4923;52.520;13.494;2023-11-18T07:12:42;4.80;99.90
9768;DHT22;4923;52.520;13.494;2023-11-18T07:15:29;4.80;99.90
9768;DHT22;4923;52.520;13.494;2023-11-18T07:18:17;4.80;99.90
9768;DHT22;4923;52.520;13.494;2023-11-18T07:21:07;4.90;99.90
9768;DHT22;4923;52.520;13.494;2023-11-18T07:23:55;4.90;99.90
9768;DHT22;4923;52.520;13.494;2023-11-18T07:26:42;4.80;99.90
9768;DHT22;4923;52.520;13.494;2023-11-18T07:29:31;4.80;99.90
9768;DHT22;4923;52.520;13.494;2023-11-18T07:32:18;4.80;99.90
9768;DHT22;4923;52.520;13.494;2023-11-18T07:35:05;4.80;99.90
9768;DHT22;4923;52.520;13.494;2023-11-18T07:37:54;4.80;99.90
9768;DHT22;4923;52.520;13.494;2023-11-18T07:40:42;4.90;99.90
9768;DHT22;4923;52.520;13.494;2023-11-18T07:43:31;4.90;99.90
9768;DHT22;4923;52.520;13.494;2023-11-18T07:46:20;4.90;99.90
9768;DHT22;4923;52.520;13.494;2023-11-18T07:49:08;5.00;99.90
9768;DHT22;4923;52.520;13.494;2023-11-18T07:51:55;5.00;99.90
9768;DHT22;4923;52.520;13.494;2023-11-18T07:54:42;5.00;99.90
9768;DHT22;4923;52.520;13.494;2023-11-18T07:57:29;5.00;99.90
9768;DHT22;4923;52.520;13.494;2023-11-18T08:00:16;5.00;99.90
9768;DHT22;4923;52.520;13.494;2023-11-18T08:03:04;5.00;99.90
9768;DHT22;4923;52.520;13.494;2023-11-18T08:05:52;5.00;99.90
9768;DHT22;4923;52.520;13.494;2023-11-18T08:08:40;5.20;99.90
9768;DHT22;4923;52.520;13.494;2023-11-18T08:11:27;5.20;99.90
9768;DHT22;4923;52.520;13.494;2023-11-18T08:14:15;5.30;99.90
9768;DHT22;4923;52.520;13.494;2023-11-18T08:17:02;5.30;99.90
9768;DHT22;4923;52.520;13.494;2023-11-18T08:19:51;5.30;99.90
9768;DHT22;4923;52.520;13.494;2023-11-18T08:22:38;5.30;99.90
9768;DHT22;4923;52.520;13.494;2023-11-18T08:25:25;5.30;99.90
9768;DHT22;4923;52.520;13.494;2023-11-18T08:28:12;5.30;99.90
9768;DHT22;4923;52.520;13.494;2023-11-18T08:30:59;5.30;99.90
9768;DHT22;4923;52.520;13.494;2023-11-18T08:33:46;5.20;99.90
9768;DHT22;4923;52.520;13.494;2023-11-18T08:36:34;5.20;99.90
9768;DHT22;4923;52.520;13.494;2023-11-18T08:39:21;5.20;99.90
9768;DHT22;4923;52.520;13.494;2023-11-18T08:42:11;5.20;99.90
9768;DHT22;4923;52.520;13.494;2023-11-18T08:45:00;5.30;99.90
9768;DHT22;4923;52.520;13.494;2023-11-18T08:47:48;5.50;99.90
9768;DHT22;4923;52.520;13.494;2023-11-18T08:50:36;5.70;99.90
9768;DHT22;4923;52.520;13.494;2023-11-18T08:53:26;5.60;99.90
9768;DHT22;4923;52.520;13.494;2023-11-18T08:56:13;5.80;99.90
9768;DHT22;4923;52.520;13.494;2023-11-18T08:59:00;5.90;99.90
9768;DHT22;4923;52.520;13.494;2023-11-18T09:01:47;5.90;99.90
9768;DHT22;4923;52.520;13.494;2023-11-18T09:04:34;6.00;99.90
9768;DHT22;4923;52.520;13.494;2023-11-18T09:07:21;6.00;99.90
9768;DHT22;4923;52.520;13.494;2023-11-18T09:10:10;6.10;99.90
9768;DHT22;4923;52.520;13.494;2023-11-18T09:12:57;6.10;99.90
9768;DHT22;4923;52.520;13.494;2023-11-18T09:15:45;6.10;99.90
9768;DHT22;4923;52.520;13.494;2023-11-18T09:18:32;6.10;99.90
9768;DHT22;4923;52.520;13.494;2023-11-18T09:21:20;6.20;99.90
9768;DHT22;4923;52.520;13.494;2023-11-18T09:24:10;6.00;99.90
9768;DHT22;4923;52.520;13.494;2023-11-18T09:27:00;6.00;99.90
9768;DHT22;4923;52.520;13.494;2023-11-18T09:29:48;6.10;99.90
9768;DHT22;4923;52.520;13.494;2023-11-18T09:32:35;6.00;99.90
9768;DHT22;4923;52.520;13.494;2023-11-18T09:35:24;6.30;99.90
9768;DHT22;4923;52.520;13.494;2023-11-18T09:38:13;6.40;99.90
9768;DHT22;4923;52.520;13.494;2023-11-18T09:41:01;6.60;99.90
9768;DHT22;4923;52.520;13.494;2023-11-18T09:43:50;6.60;99.90
9768;DHT22;4923;52.520;13.494;2023-11-18T09:46:41;6.60;99.90
9768;DHT22;4923;52.520;13.494;2023-11-18T09:49:44;6.80;99.90
9768;DHT22;4923;52.520;13.494;2023-11-18T09:52:33;6.80;99.90
9768;DHT22;4923;52.520;13.494;2023-11-18T09:55:25;7.00;99.90
9768;DHT22;4923;52.520;13.494;2023-11-18T09:58:18;7.10;99.90
9768;DHT22;4923;52.520;13.494;2023-11-18T10:01:10;7.20;99.90
9768;DHT22;4923;52.520;13.494;2023-11-18T10:03:59;7.10;99.90
9768;DHT22;4923;52.520;13.494;2023-11-18T10:06:51;7.00;99.90
9768;DHT22;4923;52.520;13.494;2023-11-18T10:09:39;6.90;99.90
9768;DHT22;4923;52.520;13.494;2023-11-18T10:12:28;6.90;99.90
9768;DHT22;4923;52.520;13.494;2023-11-18T10:15:17;7.00;99.90
9768;DHT22;4923;52.520;13.494;2023-11-18T10:18:06;7.10;99.90
9768;DHT22;4923;52.520;13.494;2023-11-18T10:20:53;7.30;99.90
9768;DHT22;4923;52.520;13.494;2023-11-18T10:23:58;7.30;99.90
9768;DHT22;4923;52.520;13.494;2023-11-18T10:26:54;7.40;99.90
9768;DHT22;4923;52.520;13.494;2023-11-18T10:29:42;7.70;99.90
9768;DHT22;4923;52.520;13.494;2023-11-18T10:32:29;7.80;99.90
9768;DHT22;4923;52.520;13.494;2023-11-18T10:35:22;8.00;99.90
9768;DHT22;4923;52.520;13.494;2023-11-18T10:38:10;8.10;99.90
9768;DHT22;4923;52.520;13.494;2023-11-18T10:40:58;8.20;99.90
9768;DHT22;4923;52.520;13.494;2023-11-18T10:43:46;8.20;99.90
9768;DHT22;4923;52.520;13.494;2023-11-18T10:46:35;8.20;99.90
9768;DHT22;4923;52.520;13.494;2023-11-18T10:49:22;8.10;99.90
9768;DHT22;4923;52.520;13.494;2023-11-18T10:52:10;8.10;99.90
9768;DHT22;4923;52.520;13.494;2023-11-18T10:54:58;8.00;99.90
9768;DHT22;4923;52.520;13.494;2023-11-18T10:57:52;8.10;99.90
9768;DHT22;4923;52.520;13.494;2023-11-18T11:00:49;8.40;99.90
9768;DHT22;4923;52.520;13.494;2023-11-18T11:03:52;8.70;99.90
9768;DHT22;4923;52.520;13.494;2023-11-18T11:06:42;8.30;99.90
9768;DHT22;4923;52.520;13.494;2023-11-18T11:09:33;8.30;99.90
9768;DHT22;4923;52.520;13.494;2023-11-18T11:12:25;8.30;99.90
9768;DHT22;4923;52.520;13.494;2023-11-18T11:15:12;7.90;99.90
9768;DHT22;4923;52.520;13.494;2023-11-18T11:18:08;8.00;99.90
9768;DHT22;4923;52.520;13.494;2023-11-18T11:20:59;8.00;99.90
9768;DHT22;4923;52.520;13.494;2023-11-18T11:23:52;8.10;99.90
9768;DHT22;4923;52.520;13.494;2023-11-18T11:29:54;8.30;99.90
9768;DHT22;4923;52.520;13.494;2023-11-18T11:32:47;8.50;99.90
9768;DHT22;4923;52.520;13.494;2023-11-18T11:35:40;8.50;99.90
9768;DHT22;4923;52.520;13.494;2023-11-18T11:38:32;8.60;99.90
9768;DHT22;4923;52.520;13.494;2023-11-18T11:41:19;8.60;99.90
9768;DHT22;4923;52.520;13.494;2023-11-18T11:44:13;8.70;99.90
9768;DHT22;4923;52.520;13.494;2023-11-18T11:47:01;8.80;99.90
9768;DHT22;4923;52.520;13.494;2023-11-18T11:49:54;8.90;99.90
9768;DHT22;4923;52.520;13.494;2023-11-18T11:52:48;9.00;99.90
9768;DHT22;4923;52.520;13.494;2023-11-18T11:55:45;9.10;99.90
9768;DHT22;4923;52.520;13.494;2023-11-18T11:58:34;9.00;99.90
9768;DHT22;4923;52.520;13.494;2023-11-18T12:01:27;9.00;99.90
9768;DHT22;4923;52.520;13.494;2023-11-18T12:04:19;8.90;99.90
9768;DHT22;4923;52.520;13.494;2023-11-18T12:07:15;8.70;99.90
9768;DHT22;4923;52.520;13.494;2023-11-18T12:10:02;8.60;99.90
9768;DHT22;4923;52.520;13.494;2023-11-18T12:13:07;8.70;99.90
9768;DHT22;4923;52.520;13.494;2023-11-18T12:15:55;8.80;99.90
9768;DHT22;4923;52.520;13.494;2023-11-18T12:22:11;8.60;99.90
9768;DHT22;4923;52.520;13.494;2023-11-18T12:25:30;8.60;99.90
9768;DHT22;4923;52.520;13.494;2023-11-18T12:28:25;8.80;99.90
9768;DHT22;4923;52.520;13.494;2023-11-18T12:31:40;8.70;99.90
9768;DHT22;4923;52.520;13.494;2023-11-18T12:34:51;8.70;99.90
9768;DHT22;4923;52.520;13.494;2023-11-18T12:38:06;8.90;99.90
9768;DHT22;4923;52.520;13.494;2023-11-18T12:41:01;8.80;99.90
9768;DHT22;4923;52.520;13.494;2023-11-18T12:44:10;8.90;99.90
9768;DHT22;4923;52.520;13.494;2023-11-18T12:47:05;9.20;99.90
9768;DHT22;4923;52.520;13.494;2023-11-18T12:50:00;9.30;99.90
9768;DHT22;4923;52.520;13.494;2023-11-18T12:52:47;9.40;99.90
9768;DHT22;4923;52.520;13.494;2023-11-18T12:55:35;9.40;99.90
9768;DHT22;4923;52.520;13.494;2023-11-18T12:58:22;9.30;99.90
9768;DHT22;4923;52.520;13.494;2023-11-18T13:01:09;9.20;99.90
9768;DHT22;4923;52.520;13.494;2023-11-18T13:04:01;9.10;99.90
9768;DHT22;4923;52.520;13.494;2023-11-18T13:06:48;8.70;99.90
9768;DHT22;4923;52.520;13.494;2023-11-18T13:09:37;8.70;99.90
9768;DHT22;4923;52.520;13.494;2023-11-18T13:12:26;8.80;99.90
9768;DHT22;4923;52.520;13.494;2023-11-18T13:15:14;8.80;99.90
9768;DHT22;4923;52.520;13.494;2023-11-18T13:18:03;8.70;99.90
9768;DHT22;4923;52.520;13.494;2023-11-18T13:20:56;8.60;99.90
9768;DHT22;4923;52.520;13.494;2023-11-18T13:23:45;8.40;99.90
9768;DHT22;4923;52.520;13.494;2023-11-18T13:26:33;8.30;99.90
9768;DHT22;4923;52.520;13.494;2023-11-18T13:29:20;8.00;99.90
9768;DHT22;4923;52.520;13.494;2023-11-18T13:32:10;8.00;99.90
9768;DHT22;4923;52.520;13.494;2023-11-18T13:34:57;8.00;99.90
9768;DHT22;4923;52.520;13.494;2023-11-18T13:37:47;7.90;99.90
9768;DHT22;4923;52.520;13.494;2023-11-18T13:40:44;7.90;99.90
9768;DHT22;4923;52.520;13.494;2023-11-18T13:43:42;7.70;99.90
9768;DHT22;4923;52.520;13.494;2023-11-18T13:46:29;7.60;99.90
9768;DHT22;4923;52.520;13.494;2023-11-18T13:49:16;7.50;99.90
9768;DHT22;4923;52.520;13.494;2023-11-18T13:52:03;7.40;99.90
9768;DHT22;4923;52.520;13.494;2023-11-18T13:54:54;7.30;99.90
9768;DHT22;4923;52.520;13.494;2023-11-18T13:57:42;7.20;99.90
9768;DHT22;4923;52.520;13.494;2023-11-18T14:00:29;7.10;99.90
9768;DHT22;4923;52.520;13.494;2023-11-18T14:03:18;6.90;99.90
9768;DHT22;4923;52.520;13.494;2023-11-18T14:06:07;6.80;99.90
9768;DHT22;4923;52.520;13.494;2023-11-18T14:08:56;6.80;99.90
9768;DHT22;4923;52.520;13.494;2023-11-18T14:11:44;6.70;99.90
9768;DHT22;4923;52.520;13.494;2023-11-18T14:14:31;6.70;99.90
9768;DHT22;4923;52.520;13.494;2023-11-18T14:17:18;6.70;99.90
9768;DHT22;4923;52.520;13.494;2023-11-18T14:20:05;6.70;99.90
9768;DHT22;4923;52.520;13.494;2023-11-18T14:22:58;6.60;99.90
9768;DHT22;4923;52.520;13.494;2023-11-18T14:25:45;6.60;99.90
9768;DHT22;4923;52.520;13.494;2023-11-18T14:28:33;6.50;99.90
9768;DHT22;4923;52.520;13.494;2023-11-18T14:31:21;6.40;99.90
9768;DHT22;4923;52.520;13.494;2023-11-18T14:34:08;6.20;99.90
9768;DHT22;4923;52.520;13.494;2023-11-18T14:36:55;6.10;99.90
9768;DHT22;4923;52.520;13.494;2023-11-18T14:39:42;5.90;99.90
9768;DHT22;4923;52.520;13.494;2023-11-18T14:42:31;5.80;99.90
9768;DHT22;4923;52.520;13.494;2023-11-18T14:45:19;5.70;99.90
9768;DHT22;4923;52.520;13.494;2023-11-18T14:48:07;5.70;99.90
9768;DHT22;4923;52.520;13.494;2023-11-18T14:50:53;5.70;99.90
9768;DHT22;4923;52.520;13.494;2023-11-18T14:53:42;5.60;99.90
9768;DHT22;4923;52.520;13.494;2023-11-18T14:56:30;5.50;99.90
9768;DHT22;4923;52.520;13.494;2023-11-18T14:59:16;5.40;99.90
9768;DHT22;4923;52.520;13.494;2023-11-18T15:02:05;5.30;99.90
9768;DHT22;4923;52.520;13.494;2023-11-18T15:04:53;5.30;99.90
9768;DHT22;4923;52.520;13.494;2023-11-18T15:07:40;5.20;99.90
9768;DHT22;4923;52.520;13.494;2023-11-18T15:10:28;5.30;99.90
9768;DHT22;4923;52.520;13.494;2023-11-18T15:13:15;5.30;99.90
9768;DHT22;4923;52.520;13.494;2023-11-18T15:16:03;5.30;99.90
9768;DHT22;4923;52.520;13.494;2023-11-18T15:18:51;5.30;99.90
9768;DHT22;4923;52.520;13.494;2023-11-18T15:21:38;5.40;99.90
9768;DHT22;4923;52.520;13.494;2023-11-18T15:24:25;5.40;99.90
9768;DHT22;4923;52.520;13.494;2023-11-18T15:27:12;5.50;99.90
9768;DHT22;4923;52.520;13.494;2023-11-18T15:30:00;5.50;99.90
9768;DHT22;4923;52.520;13.494;2023-11-18T15:32:47;5.60;99.90
9768;DHT22;4923;52.520;13.494;2023-11-18T15:35:36;5.60;99.90
9768;DHT22;4923;52.520;13.494;2023-11-18T15:38:23;5.70;99.90
9768;DHT22;4923;52.520;13.494;2023-11-18T15:41:10;5.70;99.90
9768;DHT22;4923;52.520;13.494;2023-11-18T15:43:57;5.70;99.90
9768;DHT22;4923;52.520;13.494;2023-11-18T15:46:47;5.70;99.90
9768;DHT22;4923;52.520;13.494;2023-11-18T15:49:35;5.70;99.90
9768;DHT22;4923;52.520;13.494;2023-11-18T15:52:23;5.70;99.90
9768;DHT22;4923;52.520;13.494;2023-11-18T15:55:10;5.70;99.90
9768;DHT22;4923;52.520;13.494;2023-11-18T15:57:59;5.70;99.90
9768;DHT22;4923;52.520;13.494;2023-11-18T16:00:46;5.70;99.90
9768;DHT22;4923;52.520;13.494;2023-11-18T16:03:33;5.70;99.90
9768;DHT22;4923;52.520;13.494;2023-11-18T16:06:20;5.70;99.90
9768;DHT22;4923;52.520;13.494;2023-11-18T16:09:08;5.70;99.90
9768;DHT22;4923;52.520;13.494;2023-11-18T16:11:55;5.70;99.90
9768;DHT22;4923;52.520;13.494;2023-11-18T16:14:42;5.70;99.90
9768;DHT22;4923;52.520;13.494;2023-11-18T16:17:29;5.60;99.90
9768;DHT22;4923;52.520;13.494;2023-11-18T16:20:16;5.60;99.90
9768;DHT22;4923;52.520;13.494;2023-11-18T16:23:03;5.50;99.90
9768;DHT22;4923;52.520;13.494;2023-11-18T16:25:51;5.40;99.90
9768;DHT22;4923;52.520;13.494;2023-11-18T16:28:38;5.30;99.90
9768;DHT22;4923;52.520;13.494;2023-11-18T16:31:25;5.20;99.90
9768;DHT22;4923;52.520;13.494;2023-11-18T16:34:12;5.20;99.90
9768;DHT22;4923;52.520;13.494;2023-11-18T16:36:59;5.00;99.90
9768;DHT22;4923;52.520;13.494;2023-11-18T16:39:46;5.00;99.90
9768;DHT22;4923;52.520;13.494;2023-11-18T16:42:34;4.90;99.90
9768;DHT22;4923;52.520;13.494;2023-11-18T16:45:22;4.80;99.90
9768;DHT22;4923;52.520;13.494;2023-11-18T16:48:09;4.80;99.90
9768;DHT22;4923;52.520;13.494;2023-11-18T16:50:56;4.90;99.90
9768;DHT22;4923;52.520;13.494;2023-11-18T16:53:43;5.00;99.90
9768;DHT22;4923;52.520;13.494;2023-11-18T16:56:30;4.90;99.90
9768;DHT22;4923;52.520;13.494;2023-11-18T16:59:18;4.90;99.90
9768;DHT22;4923;52.520;13.494;2023-11-18T17:02:05;4.80;99.90
9768;DHT22;4923;52.520;13.494;2023-11-18T17:04:52;4.70;99.90
9768;DHT22;4923;52.520;13.494;2023-11-18T17:07:39;4.70;99.90
9768;DHT22;4923;52.520;13.494;2023-11-18T17:10:26;4.60;99.90
9768;DHT22;4923;52.520;13.494;2023-11-18T17:13:13;4.60;99.90
9768;DHT22;4923;52.520;13.494;2023-11-18T17:16:01;4.50;99.90
9768;DHT22;4923;52.520;13.494;2023-11-18T17:18:48;4.50;99.90
9768;DHT22;4923;52.520;13.494;2023-11-18T17:21:36;4.50;99.90
9768;DHT22;4923;52.520;13.494;2023-11-18T17:24:24;4.40;99.90
9768;DHT22;4923;52.520;13.494;2023-11-18T17:27:13;4.40;99.90
9768;DHT22;4923;52.520;13.494;2023-11-18T17:30:00;4.30;99.90
9768;DHT22;4923;52.520;13.494;2023-11-18T17:32:49;4.30;99.90
9768;DHT22;4923;52.520;13.494;2023-11-18T17:35:37;4.30;99.90
9768;DHT22;4923;52.520;13.494;2023-11-18T17:38:24;4.30;99.90
9768;DHT22;4923;52.520;13.494;2023-11-18T17:41:11;4.30;99.90
9768;DHT22;4923;52.520;13.494;2023-11-18T17:43:59;4.30;99.90
9768;DHT22;4923;52.520;13.494;2023-11-18T17:46:46;4.30;99.90
9768;DHT22;4923;52.520;13.494;2023-11-18T17:49:34;4.30;99.90
9768;DHT22;4923;52.520;13.494;2023-11-18T17:52:21;4.30;99.90
9768;DHT22;4923;52.520;13.494;2023-11-18T17:55:09;4.30;99.90
9768;DHT22;4923;52.520;13.494;2023-11-18T17:57:57;4.30;99.90
9768;DHT22;4923;52.520;13.494;2023-11-18T18:00:45;4.30;99.90
9768;DHT22;4923;52.520;13.494;2023-11-18T18:03:32;4.30;99.90
9768;DHT22;4923;52.520;13.494;2023-11-18T18:06:20;4.30;99.90
9768;DHT22;4923;52.520;13.494;2023-11-18T18:09:07;4.30;99.90
9768;DHT22;4923;52.520;13.494;2023-11-18T18:11:55;4.20;99.90
9768;DHT22;4923;52.520;13.494;2023-11-18T18:14:42;4.20;99.90
9768;DHT22;4923;52.520;13.494;2023-11-18T18:17:28;4.20;99.90
9768;DHT22;4923;52.520;13.494;2023-11-18T18:20:16;4.20;99.90
9768;DHT22;4923;52.520;13.494;2023-11-18T18:23:06;4.20;99.90
9768;DHT22;4923;52.520;13.494;2023-11-18T18:25:53;4.20;99.90
9768;DHT22;4923;52.520;13.494;2023-11-18T18:28:40;4.20;99.90